(°C)
(°C)
GGD
G
G
GGD
GGD
GGD
G
(km/saat)
7-14
4-11
3-11
3-9
4-10
4-12
4-13
(mm)
0
0
0
0
0
0
0
(%)
21
11
6
6
5
3
1

Sun elevation

/ -0.9°
sun-icon
UV 2
06:00
20:46
Hilal Şişkin (313°)
04:46
16:18

METAR for Rothenburg (LSME)

Zaman Conditions Sıcaklık/
Çiy noktası
Rüzgar Görünürlük Hava Bulutlar Basınç Change Raw
9°C / 6°C 200º variable 160º to 240º 4kt - Few Clouds 5600ft 1019 - LSME 071820Z AUTO 20004KT 160V240 9999NDV FEW056 09/06 Q1019 RMK
10°C / 5°C 170º variable 140º to 210º 4kt - Few Clouds 5900ft 1019 - LSME 071750Z AUTO 17004KT 140V210 9999NDV FEW059 SCT075 10/05 Q1019 RMK
10°C / 5°C 170º variable 120º to 210º 4kt - Few Clouds 7200ft 1019 - LSME 071720Z AUTO 17004KT 120V210 9999NDV FEW072 10/05 Q1019 RMK
10°C / 5°C 170º variable 120º to 240º 3kt - Scattered Clouds 5500ft 1019 - LSME 071650Z AUTO 17003KT 120V240 9999NDV SCT055 BKN070 10/05 Q1019 RMK
10°C / 6°C 180º variable 120º to 240º 4kt - Few Clouds 4200ft 1019 - LSME 071620Z AUTO 18004KT 120V240 9999NDV FEW042 BKN051 BKN067 10/06 Q1019 RMK
10°C / 5°C 170º variable 150º to 210º 7kt - Scattered Clouds 4900ft 1019 - LSME 071550Z AUTO 17007KT 150V210 9999NDV SCT049 SCT071 10/05 Q1019 RMK
10°C / 7°C 160º variable 120º to 190º 6kt - Few Clouds 3800ft 1019 - LSME 071520Z AUTO 16006KT 120V190 9999NDV FEW038 10/07 Q1019 RMK
9°C / 6°C 170º variable 120º to 210º 5kt - Few Clouds 3300ft 1019 - LSME 071450Z AUTO 17005KT 120V210 9999NDV FEW033 BKN054 09/06 Q1019 RMK
VFR 9°C / 6°C 200º variable 150º to 250º 8kt >10km - Few Clouds 3200ft 1019 - LSME 071420Z 20008KT 150V250 9999 FEW032 BKN045 OVC052 09/06 Q1019 RMK BLU
MVFR 10°C / 4°C 300º variable 240º to 350º 5kt >10km - Broken Clouds 3000ft 1019 - LSME 071350Z 30005KT 240V350 9999 BKN030 BKN072 10/04 Q1019 RMK BLU
VFR 11°C / 4°C variable 0kt >10km - Few Clouds 1600ft 1018 - LSME 071320Z 00000KT 9999 FEW016 SCT027 BKN031 11/04 Q1018 RMK BLU
MVFR 9°C / 7°C 200º variable 170º to 230º 5kt >10km - Few Clouds 2100ft 1018 - LSME 071250Z 20005KT 170V230 9999 FEW021 BKN026 BKN036 09/07 Q1018 RMK BLU
VFR 9°C / 6°C 200º variable 150º to 230º 6kt >10km - Few Clouds 3100ft 1018 - LSME 071220Z 20006KT 150V230 9999 FEW031 BKN036 BKN044 09/06 Q1018 RMK BLU
VFR 9°C / 7°C 260º variable 210º to 300º 5kt >10km Light Showers Rain Few Clouds 2400ft 1018 - LSME 071150Z 26005KT 210V300 9999 -SHRA FEW024 OVC032 09/07 Q1018 RMK BLU
MVFR 9°C / 6°C 240º variable 170º to 280º 4kt >10km Light Showers Rain Few Clouds 2000ft 1017 - LSME 071120Z 24004KT 170V280 9999 -SHRA FEW020 BKN026 BKN039 09/06 Q1017 RMK BLU
9°C / 6°C variable 2kt - Few Clouds 1500ft 1017 - LSME 071050Z AUTO VRB02KT 9999NDV FEW015 SCT022 OVC029 09/06 Q1017 RERA RMK
8°C / 7°C variable 1kt Light Rain Few Clouds 1500ft 1017 - LSME 071020Z AUTO VRB01KT 9999NDV -RA FEW015 BKN021 BKN028 08/07 Q1017 RERA RMK
MVFR 8°C / 6°C 260º variable 210º to 300º 3kt 7000m Rain Few Clouds 1600ft 1015 - LSME 070920Z 26003KT 210V300 7000 RA FEW016 SCT022 BKN027 08/06 Q1015 RMK WHT
MVFR 8°C / 5°C 270º variable 240º to 320º 6kt 8000m Showers Rain Scattered Clouds 2600ft 1014 - LSME 070850Z 27006KT 240V320 8000 SHRA SCT026 OVC034 08/05 Q1014 RMK BLU
VFR 10°C / 5°C 240º variable 190º to 260º 11kt >10km Light Showers Rain Few Clouds 2600ft 1012 - LSME 070750Z 24011KT 190V260 9999 -SHRA FEW026 SCT038 BKN046 10/05 Q1012 RMK BLU
VFR 12°C / 4°C 230º 13kt >10km - Broken Clouds 4800ft 1012 - LSME 070720Z 23013KT 9999 BKN048 BKN100 12/04 Q1012 RMK BLU
VFR 12°C / 5°C 250º variable 210º to 300º 12kt >10km - Broken Clouds 4400ft 1012 - LSME 070650Z 25012KT 210V300 9999 BKN044 BKN100 12/05 Q1012 RMK BLU
VFR 11°C / 5°C 260º variable 210º to 320º 9kt >10km - Broken Clouds 4600ft 1012 - LSME 070620Z 26009KT 210V320 9999 BKN046 BKN052 11/05 Q1012 RMK BLU
VFR 11°C / 4°C 240º 8kt >10km - Scattered Clouds 5200ft 1011 - LSME 070550Z 24008KT 9999 SCT052 SCT120 11/04 Q1011 RMK BLU+

9°C / 6°C

[Daha fazla]
Rüzgar 200º variable 160º to 240º 4kt
Görünürlük
Hava -
Bulutlar Few Clouds 5600ft
Basınç 1019
Change -
Raw LSME 071820Z AUTO 20004KT 160V240 9999NDV FEW056 09/06 Q1019 RMK

10°C / 5°C

[Daha fazla]
Rüzgar 170º variable 140º to 210º 4kt
Görünürlük
Hava -
Bulutlar Few Clouds 5900ft
Basınç 1019
Change -
Raw LSME 071750Z AUTO 17004KT 140V210 9999NDV FEW059 SCT075 10/05 Q1019 RMK

10°C / 5°C

[Daha fazla]
Rüzgar 170º variable 120º to 210º 4kt
Görünürlük
Hava -
Bulutlar Few Clouds 7200ft
Basınç 1019
Change -
Raw LSME 071720Z AUTO 17004KT 120V210 9999NDV FEW072 10/05 Q1019 RMK

10°C / 5°C

[Daha fazla]
Rüzgar 170º variable 120º to 240º 3kt
Görünürlük
Hava -
Bulutlar Scattered Clouds 5500ft
Basınç 1019
Change -
Raw LSME 071650Z AUTO 17003KT 120V240 9999NDV SCT055 BKN070 10/05 Q1019 RMK

10°C / 6°C

[Daha fazla]
Rüzgar 180º variable 120º to 240º 4kt
Görünürlük
Hava -
Bulutlar Few Clouds 4200ft
Basınç 1019
Change -
Raw LSME 071620Z AUTO 18004KT 120V240 9999NDV FEW042 BKN051 BKN067 10/06 Q1019 RMK

10°C / 5°C

[Daha fazla]
Rüzgar 170º variable 150º to 210º 7kt
Görünürlük
Hava -
Bulutlar Scattered Clouds 4900ft
Basınç 1019
Change -
Raw LSME 071550Z AUTO 17007KT 150V210 9999NDV SCT049 SCT071 10/05 Q1019 RMK

10°C / 7°C

[Daha fazla]
Rüzgar 160º variable 120º to 190º 6kt
Görünürlük
Hava -
Bulutlar Few Clouds 3800ft
Basınç 1019
Change -
Raw LSME 071520Z AUTO 16006KT 120V190 9999NDV FEW038 10/07 Q1019 RMK

9°C / 6°C

[Daha fazla]
Rüzgar 170º variable 120º to 210º 5kt
Görünürlük
Hava -
Bulutlar Few Clouds 3300ft
Basınç 1019
Change -
Raw LSME 071450Z AUTO 17005KT 120V210 9999NDV FEW033 BKN054 09/06 Q1019 RMK

VFR

9°C / 6°C

[Daha fazla]
Rüzgar 200º variable 150º to 250º 8kt
Görünürlük >10km
Hava -
Bulutlar Few Clouds 3200ft
Basınç 1019
Change -
Raw LSME 071420Z 20008KT 150V250 9999 FEW032 BKN045 OVC052 09/06 Q1019 RMK BLU

MVFR

10°C / 4°C

[Daha fazla]
Rüzgar 300º variable 240º to 350º 5kt
Görünürlük >10km
Hava -
Bulutlar Broken Clouds 3000ft
Basınç 1019
Change -
Raw LSME 071350Z 30005KT 240V350 9999 BKN030 BKN072 10/04 Q1019 RMK BLU

VFR

11°C / 4°C

[Daha fazla]
Rüzgar variable 0kt
Görünürlük >10km
Hava -
Bulutlar Few Clouds 1600ft
Basınç 1018
Change -
Raw LSME 071320Z 00000KT 9999 FEW016 SCT027 BKN031 11/04 Q1018 RMK BLU

MVFR

9°C / 7°C

[Daha fazla]
Rüzgar 200º variable 170º to 230º 5kt
Görünürlük >10km
Hava -
Bulutlar Few Clouds 2100ft
Basınç 1018
Change -
Raw LSME 071250Z 20005KT 170V230 9999 FEW021 BKN026 BKN036 09/07 Q1018 RMK BLU

VFR

9°C / 6°C

[Daha fazla]
Rüzgar 200º variable 150º to 230º 6kt
Görünürlük >10km
Hava -
Bulutlar Few Clouds 3100ft
Basınç 1018
Change -
Raw LSME 071220Z 20006KT 150V230 9999 FEW031 BKN036 BKN044 09/06 Q1018 RMK BLU

VFR

9°C / 7°C

[Daha fazla]
Rüzgar 260º variable 210º to 300º 5kt
Görünürlük >10km
Hava Light Showers Rain
Bulutlar Few Clouds 2400ft
Basınç 1018
Change -
Raw LSME 071150Z 26005KT 210V300 9999 -SHRA FEW024 OVC032 09/07 Q1018 RMK BLU

MVFR

9°C / 6°C

[Daha fazla]
Rüzgar 240º variable 170º to 280º 4kt
Görünürlük >10km
Hava Light Showers Rain
Bulutlar Few Clouds 2000ft
Basınç 1017
Change -
Raw LSME 071120Z 24004KT 170V280 9999 -SHRA FEW020 BKN026 BKN039 09/06 Q1017 RMK BLU

9°C / 6°C

[Daha fazla]
Rüzgar variable 2kt
Görünürlük
Hava -
Bulutlar Few Clouds 1500ft
Basınç 1017
Change -
Raw LSME 071050Z AUTO VRB02KT 9999NDV FEW015 SCT022 OVC029 09/06 Q1017 RERA RMK

8°C / 7°C

[Daha fazla]
Rüzgar variable 1kt
Görünürlük
Hava Light Rain
Bulutlar Few Clouds 1500ft
Basınç 1017
Change -
Raw LSME 071020Z AUTO VRB01KT 9999NDV -RA FEW015 BKN021 BKN028 08/07 Q1017 RERA RMK

MVFR

8°C / 6°C

[Daha fazla]
Rüzgar 260º variable 210º to 300º 3kt
Görünürlük 7000m
Hava Rain
Bulutlar Few Clouds 1600ft
Basınç 1015
Change -
Raw LSME 070920Z 26003KT 210V300 7000 RA FEW016 SCT022 BKN027 08/06 Q1015 RMK WHT

MVFR

8°C / 5°C

[Daha fazla]
Rüzgar 270º variable 240º to 320º 6kt
Görünürlük 8000m
Hava Showers Rain
Bulutlar Scattered Clouds 2600ft
Basınç 1014
Change -
Raw LSME 070850Z 27006KT 240V320 8000 SHRA SCT026 OVC034 08/05 Q1014 RMK BLU

VFR

10°C / 5°C

[Daha fazla]
Rüzgar 240º variable 190º to 260º 11kt
Görünürlük >10km
Hava Light Showers Rain
Bulutlar Few Clouds 2600ft
Basınç 1012
Change -
Raw LSME 070750Z 24011KT 190V260 9999 -SHRA FEW026 SCT038 BKN046 10/05 Q1012 RMK BLU

VFR

12°C / 4°C

[Daha fazla]
Rüzgar 230º 13kt
Görünürlük >10km
Hava -
Bulutlar Broken Clouds 4800ft
Basınç 1012
Change -
Raw LSME 070720Z 23013KT 9999 BKN048 BKN100 12/04 Q1012 RMK BLU

VFR

12°C / 5°C

[Daha fazla]
Rüzgar 250º variable 210º to 300º 12kt
Görünürlük >10km
Hava -
Bulutlar Broken Clouds 4400ft
Basınç 1012
Change -
Raw LSME 070650Z 25012KT 210V300 9999 BKN044 BKN100 12/05 Q1012 RMK BLU

VFR

11°C / 5°C

[Daha fazla]
Rüzgar 260º variable 210º to 320º 9kt
Görünürlük >10km
Hava -
Bulutlar Broken Clouds 4600ft
Basınç 1012
Change -
Raw LSME 070620Z 26009KT 210V320 9999 BKN046 BKN052 11/05 Q1012 RMK BLU

VFR

11°C / 4°C

[Daha fazla]
Rüzgar 240º 8kt
Görünürlük >10km
Hava -
Bulutlar Scattered Clouds 5200ft
Basınç 1011
Change -
Raw LSME 070550Z 24008KT 9999 SCT052 SCT120 11/04 Q1011 RMK BLU+

Current satellite and rain images for Rothenburg, İsviçre

  • Yağış:
  • <1 mm
  • 1-2 mm
  • 2-5 mm
  • >5 mm

Konum işaretleyici Rothenburg üzerine yerleştirilir. [Daha fazla]

The real-time satellite image combines visible light during daytime with infrared radiation during nighttime. At night, the image is not dark as infrared radiation can detect temperature differences. Unfortunately, low clouds and fog are difficult to distinguish from ground temperatures and thus can be almost invisible during the night. Meteosat satellite images for Europe are updated in real-time every 5 minutes. GOES-16/GOES-17 (North & South America) and Himawari (Asia) images update every 10 minutes.

Yağış radar ve uydudan tahmin edilir. Uydulardan gece yapılan yağış tahminleri gündüz yapılan tahminlere göre daha az kusursuzdur. Turuncu çarpılar şimşeklerin saptandığı yerleri gösterir (Avrupa üzeri).

Copyright 2021 EUMETSAT / meteoblue. nowcast tarafından sağlanan şimşek verileri.

Rothenburg için radar ve yağış nowcast

Konum işaretleyicisi Rothenburg üzerine yerleştirilir. Bu animasyon son saat içerisindeki yağış radarını ve 1h tahminini gösterir. Hafif yağmur veya kar yağışı radar için görünmez olabilir. Yağış şiddeti açık mavi ile koyu mor arasındaki renklerle kodlanmıştır.

Güncel hava durumu ve uyarılar

EUMETNET – MeteoAlarm

pictomap

Kaynak: MeteoSwiss

Bu web sitesi ve www.meteoalarm.eu web sitesi arasında zaman gecikmeleri olabilir, Ulusal Meteoroloji Servisi tarafından yayınlanan uyarı düzeyleri hakkında en güncel bilgiler için lütfen www.meteoalarm.eu sayfasını kullanın.